Poplar Branch, North Carolina
Current Conditions -  °F | °C
As of 5:15 PM on Sunday 23 Nov 2014 (Local Time) from KONX Reporting Station
Light Rain Light Rain  
Wind Chill: 60°   Ceiling: Unl
Heat Index: 60°   Visibility: 10mi
Dew Point: 54°   Wind: 0mph
Humidity: 80%   Direction: NA
Pressure: 30.09"   Gusts: NA
Location:  36.28°N, 75.89°W
Report Text: KONX 232215Z AUTO 00000KT 10SM -RA SCT032 SCT044 SCT055 16/12 A3009 RMK AO2 T01550120
Loading
Personal Weather Stations






























Interactive Weather Map New forecast layout! Learn more

10-Day Weather Forecast

Advertisements
Track Severe Weather on mobile